Foret D'Eperlecques (62) - B

Date : 06/03/2022
Valeur du circuit : 19111143 point × seconde

Place Nom Licence Catégorie Club Temps CN à J-15 Valeur Points Différence Nouveau CN
1 LABARRE Maria 29467 D21 6205HF 0:45:59 6169 17020271 6927 +758 6169
2 BAUDSON Jérôme 22215 H45 5906HF 0:47:20 8058 22884720 6729 -1329 8181
3 FLICOTEAUX Raphaël 722 H40 5907HF 0:47:32 6366 18155832 6701 +335 6444
4 CORDEIRO MENDES Magalie 9869 D21 6008HF 0:50:28 5817 17613876 6311 +494 6073
5 MEYERS Laurane 41724 D21 6208HF 0:54:00 0 5899 4806
6 DEFRAIGNE Sandrine 36478 D21 5907HF 0:54:12 5678 18464856 5877 +199 5795
7 DELINSELLE Alexis 20676 H40 5907HF 0:59:19 5404 19232836 5370 -34 5455
8 SENCE Stephane 16450 H45 5906HF 1:01:22 5812 21399784 5190 -622 5771
9 FLORENT Roxane 26927 D21 5907HF 1:01:27 5797 21373539 5183 -614 5736
10 GRESSET-BOURGEOIS Mathilde 26666 D35 5907HF 1:03:05 5503 20828855 5049 -454 5476
11 RAU Hervé 25624 H45 5909HF 1:03:17 5558 21103726 5033 -525 5558
12 POIRIEZ Frederic 32683 H45 6208HF 1:05:20 0 4875 3373
13 KARAMUCKI Elsa 39704 D35 5906HF 1:06:01 4573 18113653 4825 +252 4650
14 DELCUSE Vincent 27703 H45 5909HF 1:13:59 5851 25972589 4305 -1546 5816
15 BERTOUT Bastien 36151 H45 5906HF 1:15:23 4531 20493713 4225 -306 4477
16 LEFEVRE Lou 30950 D21 5907HF 1:16:30 4135 18979650 4164 +29 4140
17 SOLTYSIAK Charlotte 30322 D21 5906HF 1:19:33 4841 4004 -837 4803
18 LABROCHE Claire 26570 D21 0207HF 1:20:10 5105 3973 -1132 5105
19 LANDRY Pauline 30414 D21 6203HF 1:21:26 3815 3911 +96 3864
20 MARECHAL Margaux 34384 D21 6205HF 1:23:32 3844 3813 -31 3896
21 DEWILDE Stéphane 35855 H45 5907HF 1:25:26 2352 3728 +1376 3037
22 GUILMAIN Melanie 20572 D21 6208HF 1:36:33 3666 3299 -294 3543
23 DESTREZ Lise 35438 D35 0207HF 1:47:27 3083 2964 -119 3163
MOREAU-DESCOINGS François 20722 H45 5906HF abandon 0 0 0
HOUTE Valérie 39876 D35 6008HF abandon 4447 0 4447
CZERNIAK Jérôme 13271 H45 6205HF pm 5239 0 5305